Time;durP1;ratioP1;P1;durP2;ratioP2;P2;SDS_P1;SDS_P2;PMS_P1;PMS_P2;Temp;Humidity;BMP_temperature;BMP_pressure;BME280_temperature;BME280_humidity;BME280_pressure;Samples;Min_cycle;Max_cycle;Signal;HPM_P1;HPM_P2
2022/05/17 00:00:19;;;;;;;0.00;0.00;;;17.80;90.70;;;;;;4161660;28;20537;-68
2022/05/17 00:02:43;;;;;;;0.00;0.00;;;17.90;90.70;;;;;;4120469;28;20086;-67
2022/05/17 00:05:09;;;;;;;0.00;0.00;;;17.80;90.70;;;;;;4134245;28;20477;-69
2022/05/17 00:07:36;;;;;;;0.00;0.00;;;17.70;90.90;;;;;;4121496;28;20126;-72
2022/05/17 00:10:18;;;;;;;0.00;0.00;;;17.70;90.90;;;;;;4133884;28;20047;-70
2022/05/17 00:12:40;;;;;;;0.00;0.00;;;17.70;90.90;;;;;;4148248;28;20138;-68
2022/05/17 00:15:08;;;;;;;0.00;0.00;;;17.70;90.80;;;;;;4148198;28;20046;-70
2022/05/17 00:17:42;;;;;;;0.00;0.00;;;17.70;90.90;;;;;;4135766;28;20384;-68
2022/05/17 00:20:08;;;;;;;0.00;0.00;;;17.60;91.00;;;;;;4120743;28;20064;-68
2022/05/17 00:22:33;;;;;;;0.00;0.00;;;17.60;91.10;;;;;;4161180;28;20046;-67
2022/05/17 00:25:00;;;;;;;0.00;0.00;;;17.60;91.10;;;;;;4148190;28;20045;-67
2022/05/17 00:27:26;;;;;;;0.00;0.00;;;17.60;91.10;;;;;;4147749;28;20068;-65
2022/05/17 00:29:54;;;;;;;0.00;0.00;;;17.60;91.10;;;;;;4120612;28;20508;-70
2022/05/17 00:32:17;;;;;;;0.00;0.00;;;17.60;91.10;;;;;;4120131;28;20066;-67
2022/05/17 00:34:46;;;;;;;0.00;0.00;;;17.60;91.20;;;;;;4133791;28;20057;-67
2022/05/17 00:37:10;;;;;;;0.00;0.00;;;17.60;91.10;;;;;;4148011;28;20081;-69
2022/05/17 00:39:35;;;;;;;0.00;0.00;;;17.60;91.10;;;;;;4133988;28;20761;-67
2022/05/17 00:41:59;;;;;;;0.00;0.00;;;17.60;91.10;;;;;;4120582;28;20049;-69
2022/05/17 00:44:44;;;;;;;0.00;0.00;;;17.70;91.20;;;;;;4133618;28;20440;-67
2022/05/17 00:47:21;;;;;;;0.00;0.00;;;17.70;91.20;;;;;;4133365;28;20096;-68
2022/05/17 00:49:58;;;;;;;0.00;0.00;;;17.60;91.20;;;;;;4106140;28;20134;-67
2022/05/17 00:52:41;;;;;;;0.00;0.00;;;17.60;91.20;;;;;;4133399;28;20426;-68
2022/05/17 00:55:31;;;;;;;0.00;0.00;;;17.60;91.30;;;;;;4119764;28;20570;-69
2022/05/17 00:58:00;;;;;;;0.00;0.00;;;17.50;91.30;;;;;;4147995;28;20054;-67
2022/05/17 01:00:28;;;;;;;0.00;0.00;;;17.40;91.40;;;;;;4147647;28;20050;-68
2022/05/17 01:03:13;;;;;;;0.00;0.00;;;17.40;91.40;;;;;;4147651;28;20111;-67
2022/05/17 01:05:44;;;;;;;0.00;0.00;;;17.30;91.50;;;;;;4147473;28;20106;-67
2022/05/17 01:08:16;;;;;;;0.00;0.00;;;17.30;91.60;;;;;;4147455;28;20080;-67
2022/05/17 01:10:51;;;;;;;0.00;0.00;;;17.40;91.60;;;;;;4134678;28;20503;-68
2022/05/17 01:15:55;;;;;;;0.00;0.00;;;17.40;91.50;;;;;;4133051;28;20057;-68
2022/05/17 01:18:20;;;;;;;0.00;0.00;;;17.40;91.50;;;;;;4147389;28;20072;-67
2022/05/17 01:20:56;;;;;;;0.00;0.00;;;17.30;91.60;;;;;;4132873;28;20042;-69
2022/05/17 01:23:30;;;;;;;0.00;0.00;;;17.30;91.70;;;;;;4120510;28;20099;-68
2022/05/17 01:25:54;;;;;;;0.00;0.00;;;17.30;91.70;;;;;;4132992;28;20056;-68
2022/05/17 01:28:25;;;;;;;0.00;0.00;;;17.30;91.70;;;;;;4119677;28;20043;-67
2022/05/17 01:30:50;;;;;;;0.00;0.00;;;17.30;91.80;;;;;;4147295;28;20074;-66
2022/05/17 01:33:19;;;;;;;0.00;0.00;;;17.30;91.70;;;;;;4119797;28;20139;-67
2022/05/17 01:35:55;;;;;;;0.00;0.00;;;17.30;91.70;;;;;;4132658;28;20043;-70
2022/05/17 01:38:21;;;;;;;0.00;0.00;;;17.30;91.60;;;;;;4132810;28;20042;-66
2022/05/17 01:40:43;;;;;;;0.00;0.00;;;17.30;91.70;;;;;;4160306;28;20450;-66
2022/05/17 01:43:06;;;;;;;0.00;0.00;;;17.30;91.70;;;;;;4132697;28;20042;-67
2022/05/17 01:45:31;;;;;;;0.00;0.00;;;17.30;91.70;;;;;;4160158;28;20045;-69
2022/05/17 01:47:54;;;;;;;0.00;0.00;;;17.30;91.70;;;;;;4132904;28;20064;-67
2022/05/17 01:50:18;;;;;;;0.00;0.00;;;17.30;91.70;;;;;;4106025;28;20415;-70
2022/05/17 01:52:44;;;;;;;0.00;0.00;;;17.20;91.90;;;;;;4132561;28;20053;-67
2022/05/17 01:55:11;;;;;;;0.00;0.00;;;17.20;91.90;;;;;;4133155;28;20124;-67
2022/05/17 01:57:35;;;;;;;0.00;0.00;;;17.20;91.90;;;;;;4159897;28;20049;-67
2022/05/17 02:00:00;;;;;;;0.00;0.00;;;17.20;91.80;;;;;;4119177;28;20058;-67
2022/05/17 02:02:22;;;;;;;0.00;0.00;;;17.20;91.80;;;;;;4118877;28;20047;-66
2022/05/17 02:04:46;;;;;;;0.00;0.00;;;17.20;91.90;;;;;;4146182;28;20098;-66
2022/05/17 02:07:11;;;;;;;0.00;0.00;;;17.10;92.00;;;;;;4132647;28;20052;-67
2022/05/17 02:09:33;;;;;;;0.00;0.00;;;17.10;92.10;;;;;;4132708;28;20038;-69
2022/05/17 02:11:58;;;;;;;0.00;0.00;;;17.10;92.40;;;;;;4119079;28;20149;-67
2022/05/17 02:14:26;;;;;;;0.00;0.00;;;17.00;92.30;;;;;;4159678;28;20049;-66
2022/05/17 02:16:51;;;;;;;0.00;0.00;;;16.90;92.30;;;;;;4118976;28;20082;-66
2022/05/17 02:19:19;;;;;;;0.00;0.00;;;17.00;92.30;;;;;;4119295;28;20112;-67
2022/05/17 02:21:41;;;;;;;0.00;0.00;;;17.10;92.30;;;;;;4159771;28;20479;-67
2022/05/17 02:24:04;;;;;;;0.00;0.00;;;17.10;92.20;;;;;;4118878;28;20062;-65
2022/05/17 02:26:26;;;;;;;0.00;0.00;;;17.20;92.20;;;;;;4118711;28;20051;-69
2022/05/17 02:28:48;;;;;;;0.00;0.00;;;17.20;92.20;;;;;;4118871;28;20074;-70
2022/05/17 02:31:15;;;;;;;0.00;0.00;;;17.20;92.10;;;;;;4118741;28;20142;-67
2022/05/17 02:33:40;;;;;;;0.00;0.00;;;17.10;92.10;;;;;;4118670;28;20117;-65
2022/05/17 02:36:03;;;;;;;0.00;0.00;;;17.20;92.10;;;;;;4118666;28;20050;-65
2022/05/17 02:38:27;;;;;;;0.00;0.00;;;17.10;92.20;;;;;;4119182;28;20240;-67
2022/05/17 02:40:54;;;;;;;0.00;0.00;;;17.10;92.20;;;;;;4118779;28;20054;-65
2022/05/17 02:43:16;;;;;;;0.00;0.00;;;17.10;92.20;;;;;;4132033;28;20464;-66
2022/05/17 02:45:38;;;;;;;0.00;0.00;;;17.10;92.20;;;;;;4132200;28;20132;-71
2022/05/17 02:48:00;;;;;;;0.00;0.00;;;17.20;92.20;;;;;;4145688;28;20093;-64
2022/05/17 02:50:24;;;;;;;0.00;0.00;;;17.10;92.20;;;;;;4131762;28;20061;-66
2022/05/17 02:52:51;;;;;;;0.00;0.00;;;17.10;92.20;;;;;;4146484;28;20442;-68
2022/05/17 02:55:16;;;;;;;0.00;0.00;;;17.00;92.30;;;;;;4118658;28;20050;-66
2022/05/17 02:57:41;;;;;;;0.00;0.00;;;17.10;92.40;;;;;;4131963;28;20035;-68
2022/05/17 03:00:07;;;;;;;0.00;0.00;;;17.10;92.20;;;;;;4118465;28;20046;-69
2022/05/17 03:02:29;;;;;;;0.00;0.00;;;17.20;92.10;;;;;;4118563;28;20054;-70
2022/05/17 03:04:54;;;;;;;0.00;0.00;;;17.20;92.00;;;;;;4118169;28;20055;-69
2022/05/17 03:07:18;;;;;;;0.00;0.00;;;17.20;91.90;;;;;;4159222;28;20098;-65
2022/05/17 03:09:40;;;;;;;0.00;0.00;;;17.20;91.90;;;;;;4131985;28;20038;-67
2022/05/17 03:12:02;;;;;;;0.00;0.00;;;17.10;91.90;;;;;;4118410;28;20048;-67
2022/05/17 03:14:24;;;;;;;0.00;0.00;;;17.00;91.90;;;;;;4118141;28;20055;-65
2022/05/17 03:16:46;;;;;;;0.00;0.00;;;17.00;91.90;;;;;;4118223;28;20070;-71
2022/05/17 03:19:10;;;;;;;0.00;0.00;;;17.00;91.80;;;;;;4118528;28;20399;-66
2022/05/17 03:21:34;;;;;;;0.00;0.00;;;17.00;91.90;;;;;;4131512;28;20047;-66
2022/05/17 03:23:56;;;;;;;0.00;0.00;;;17.00;91.80;;;;;;4118238;28;20047;-66
2022/05/17 03:26:25;;;;;;;0.00;0.00;;;17.00;91.80;;;;;;4131804;28;20236;-66
2022/05/17 03:28:50;;;;;;;0.00;0.00;;;16.90;91.80;;;;;;4145408;28;20051;-65
2022/05/17 03:31:12;;;;;;;0.00;0.00;;;16.90;91.80;;;;;;4131555;28;20046;-65
2022/05/17 03:33:39;;;;;;;0.00;0.00;;;16.90;91.80;;;;;;4147803;28;20057;-67
2022/05/17 03:36:04;;;;;;;0.00;0.00;;;16.80;91.90;;;;;;4121072;28;20367;-65
2022/05/17 03:38:27;;;;;;;0.00;0.00;;;16.80;91.90;;;;;;4121309;28;20051;-66
2022/05/17 03:40:50;;;;;;;0.00;0.00;;;16.70;92.00;;;;;;4121201;28;20507;-67
2022/05/17 03:43:15;;;;;;;0.00;0.00;;;16.70;92.00;;;;;;4134420;28;20073;-66
2022/05/17 03:45:37;;;;;;;0.00;0.00;;;16.70;92.00;;;;;;4121013;28;20081;-67
2022/05/17 03:48:09;;;;;;;0.00;0.00;;;16.70;92.00;;;;;;4120756;28;20062;-65
2022/05/17 03:50:31;;;;;;;0.00;0.00;;;16.70;92.00;;;;;;4133970;28;20100;-67
2022/05/17 03:52:53;;;;;;;0.00;0.00;;;16.70;91.90;;;;;;4120642;28;20050;-66
2022/05/17 03:55:16;;;;;;;0.00;0.00;;;16.70;91.90;;;;;;4120869;28;20054;-68
2022/05/17 03:57:39;;;;;;;0.00;0.00;;;16.80;91.80;;;;;;4120829;28;20047;-67
2022/05/17 04:00:06;;;;;;;0.00;0.00;;;16.90;91.60;;;;;;4120709;28;20059;-68
2022/05/17 04:02:37;;;;;;;0.00;0.00;;;16.90;91.40;;;;;;4133721;28;20138;-67
2022/05/17 04:05:02;;;;;;;0.00;0.00;;;16.80;91.50;;;;;;4161443;28;20078;-66
2022/05/17 04:07:26;;;;;;;0.00;0.00;;;16.70;91.60;;;;;;4120737;28;20047;-65
2022/05/17 04:09:53;;;;;;;0.00;0.00;;;16.80;91.60;;;;;;4191036;28;20036;-70
2022/05/17 04:12:15;;;;;;;0.00;0.00;;;16.70;91.60;;;;;;4134317;28;20047;-68
2022/05/17 04:14:40;;;;;;;0.00;0.00;;;16.70;91.60;;;;;;4107339;28;20078;-69
2022/05/17 04:17:02;;;;;;;0.00;0.00;;;16.60;91.70;;;;;;4120530;28;20054;-67
2022/05/17 04:19:26;;;;;;;0.00;0.00;;;16.70;91.70;;;;;;4120386;28;20086;-65
2022/05/17 04:21:48;;;;;;;0.00;0.00;;;16.70;91.60;;;;;;4120310;28;20054;-65
2022/05/17 04:24:11;;;;;;;0.00;0.00;;;16.70;91.60;;;;;;4133714;28;20054;-67
2022/05/17 04:26:33;;;;;;;0.00;0.00;;;16.70;91.60;;;;;;4161238;28;20046;-66
2022/05/17 04:28:55;;;;;;;0.00;0.00;;;16.60;91.60;;;;;;4147819;28;20053;-67
2022/05/17 04:31:22;;;;;;;0.00;0.00;;;16.60;92.00;;;;;;4147670;28;20065;-68
2022/05/17 04:33:48;;;;;;;0.00;0.00;;;16.60;91.70;;;;;;4121487;28;20038;-67
2022/05/17 04:36:11;;;;;;;0.00;0.00;;;16.50;91.80;;;;;;4120880;28;20488;-65
2022/05/17 04:38:36;;;;;;;0.00;0.00;;;16.60;91.80;;;;;;4161961;28;20060;-67
2022/05/17 04:40:58;;;;;;;0.00;0.00;;;16.60;91.80;;;;;;4120819;28;20076;-67
2022/05/17 04:43:20;;;;;;;0.00;0.00;;;16.70;91.80;;;;;;4120097;28;20148;-67
2022/05/17 04:45:44;;;;;;;0.00;0.00;;;16.70;91.80;;;;;;4134106;28;20107;-68
2022/05/17 04:48:06;;;;;;;0.00;0.00;;;16.80;91.80;;;;;;4120595;28;20054;-67
2022/05/17 04:50:33;;;;;;;0.00;0.00;;;16.90;91.70;;;;;;4147366;28;20073;-67
2022/05/17 04:52:55;;;;;;;0.00;0.00;;;16.90;91.60;;;;;;4133812;28;20054;-67
2022/05/17 04:55:22;;;;;;;0.00;0.00;;;16.90;91.70;;;;;;4134064;28;20115;-68
2022/05/17 04:57:50;;;;;;;0.00;0.00;;;16.90;91.70;;;;;;4133852;28;20042;-69
2022/05/17 05:00:17;;;;;;;0.00;0.00;;;16.90;91.70;;;;;;4120691;28;20539;-67
2022/05/17 05:02:42;;;;;;;0.00;0.00;;;17.00;91.60;;;;;;4133907;28;20050;-68
2022/05/17 05:05:05;;;;;;;0.00;0.00;;;16.90;91.60;;;;;;4134067;28;20057;-69
2022/05/17 05:07:32;;;;;;;0.00;0.00;;;17.00;91.60;;;;;;4161246;28;20091;-66
2022/05/17 05:09:54;;;;;;;0.00;0.00;;;17.10;91.50;;;;;;4120442;28;20039;-67
2022/05/17 05:12:16;;;;;;;0.00;0.00;;;17.20;91.30;;;;;;4120615;28;20612;-67
2022/05/17 05:14:38;;;;;;;0.00;0.00;;;17.30;91.20;;;;;;4133925;28;20095;-64
2022/05/17 05:17:02;;;;;;;0.00;0.00;;;17.50;91.00;;;;;;4120113;28;20050;-66
2022/05/17 05:19:24;;;;;;;0.00;0.00;;;17.50;90.80;;;;;;4133675;28;20147;-64
2022/05/17 05:21:46;;;;;;;0.00;0.00;;;17.60;90.70;;;;;;4134111;28;20372;-65
2022/05/17 05:24:16;;;;;;;0.00;0.00;;;17.70;90.80;;;;;;4120767;28;20053;-65
2022/05/17 05:26:41;;;;;;;0.00;0.00;;;17.90;90.30;;;;;;4147082;28;20058;-65
2022/05/17 05:29:06;;;;;;;0.00;0.00;;;18.00;90.10;;;;;;4147718;28;20065;-66
2022/05/17 05:31:31;;;;;;;0.00;0.00;;;18.10;89.90;;;;;;4146787;28;20147;-65
2022/05/17 05:33:56;;;;;;;0.00;0.00;;;18.00;89.70;;;;;;4107187;28;20085;-67
2022/05/17 05:36:18;;;;;;;0.00;0.00;;;17.90;89.80;;;;;;4136497;28;20397;-65
2022/05/17 05:38:41;;;;;;;0.00;0.00;;;17.90;89.80;;;;;;4133493;28;20042;-64
2022/05/17 05:41:03;;;;;;;0.00;0.00;;;18.00;89.40;;;;;;4133661;28;20125;-65
2022/05/17 05:43:27;;;;;;;0.00;0.00;;;17.90;89.30;;;;;;4160803;28;20543;-65
2022/05/17 05:45:49;;;;;;;0.00;0.00;;;17.90;89.50;;;;;;4133643;28;20449;-65
2022/05/17 05:48:13;;;;;;;0.00;0.00;;;18.20;88.90;;;;;;4133403;28;20050;-64
2022/05/17 05:50:37;;;;;;;0.00;0.00;;;18.20;88.10;;;;;;4133041;28;20085;-64
2022/05/17 05:53:07;;;;;;;0.00;0.00;;;18.20;88.10;;;;;;4147168;28;20048;-65
2022/05/17 05:55:35;;;;;;;0.00;0.00;;;18.10;88.40;;;;;;4119062;28;20072;-64
2022/05/17 05:58:01;;;;;;;0.00;0.00;;;18.10;88.50;;;;;;4119600;28;20131;-65
2022/05/17 06:00:24;;;;;;;0.00;0.00;;;18.20;88.40;;;;;;4119586;28;20108;-65
2022/05/17 06:02:46;;;;;;;0.00;0.00;;;18.30;88.10;;;;;;4133336;28;20129;-65
2022/05/17 06:05:09;;;;;;;0.00;0.00;;;18.50;87.70;;;;;;4119825;28;20053;-65
2022/05/17 06:07:31;;;;;;;0.00;0.00;;;18.70;87.50;;;;;;4146607;28;20098;-65
2022/05/17 06:09:55;;;;;;;0.00;0.00;;;18.80;86.70;;;;;;4120059;28;20060;-66
2022/05/17 06:12:19;;;;;;;0.00;0.00;;;18.90;86.60;;;;;;4133203;28;20066;-64
2022/05/17 06:14:42;;;;;;;0.00;0.00;;;19.00;86.00;;;;;;4105807;28;20054;-65
2022/05/17 06:17:08;;;;;;;0.00;0.00;;;19.00;85.90;;;;;;4132780;28;20142;-67
2022/05/17 06:19:35;;;;;;;0.00;0.00;;;19.10;85.50;;;;;;4133598;28;20103;-66
2022/05/17 06:21:57;;;;;;;0.00;0.00;;;19.10;85.60;;;;;;4119854;28;20059;-65
2022/05/17 06:24:19;;;;;;;0.00;0.00;;;19.10;86.10;;;;;;4120204;28;20123;-66
2022/05/17 06:26:41;;;;;;;0.00;0.00;;;19.20;86.00;;;;;;4147404;28;20369;-65
2022/05/17 06:29:04;;;;;;;0.00;0.00;;;19.20;86.00;;;;;;4132930;28;20459;-65
2022/05/17 06:31:28;;;;;;;0.00;0.00;;;19.30;85.80;;;;;;4119562;28;20386;-68
2022/05/17 06:33:52;;;;;;;0.00;0.00;;;19.40;85.80;;;;;;4120112;28;20058;-64
2022/05/17 06:36:19;;;;;;;0.00;0.00;;;19.50;85.30;;;;;;4119788;28;20039;-66
2022/05/17 06:39:02;;;;;;;0.00;0.00;;;19.50;85.00;;;;;;4122676;28;20670;-66
2022/05/17 06:41:24;;;;;;;0.00;0.00;;;19.60;85.00;;;;;;4132380;28;20046;-66
2022/05/17 06:43:48;;;;;;;0.00;0.00;;;19.60;86.20;;;;;;4119786;28;20042;-66
2022/05/17 06:46:10;;;;;;;0.00;0.00;;;19.70;85.50;;;;;;4159862;28;20052;-67
2022/05/17 06:48:35;;;;;;;0.00;0.00;;;19.70;85.60;;;;;;4146150;28;20079;-65
2022/05/17 06:51:04;;;;;;;0.00;0.00;;;19.80;85.60;;;;;;4159651;28;20057;-65
2022/05/17 06:53:26;;;;;;;0.00;0.00;;;19.80;85.90;;;;;;4132621;28;20058;-66
2022/05/17 06:55:48;;;;;;;0.00;0.00;;;19.90;85.80;;;;;;4132531;28;20042;-66
2022/05/17 06:58:10;;;;;;;0.00;0.00;;;19.90;85.90;;;;;;4119824;28;20093;-65
2022/05/17 07:00:35;;;;;;;0.00;0.00;;;20.00;85.80;;;;;;4147416;28;20165;-64
2022/05/17 07:02:58;;;;;;;0.00;0.00;;;19.90;86.50;;;;;;4113266;28;20051;-66
2022/05/17 07:05:22;;;;;;;0.00;0.00;;;19.80;85.50;;;;;;4111220;28;20138;-66
2022/05/17 07:07:50;;;;;;;0.00;0.00;;;19.80;85.80;;;;;;4141563;28;20172;-65
2022/05/17 07:13:08;;;;;;;0.00;0.00;;;19.90;85.40;;;;;;4137576;28;20080;-66
2022/05/17 07:15:38;;;;;;;0.00;0.00;;;20.10;85.00;;;;;;4137632;28;20058;-66
2022/05/17 07:18:03;;;;;;;0.00;0.00;;;20.10;84.70;;;;;;4151599;28;20483;-66
2022/05/17 07:20:28;;;;;;;0.00;0.00;;;20.10;85.10;;;;;;4195251;28;20119;-65
2022/05/17 07:22:52;;;;;;;0.00;0.00;;;20.10;84.90;;;;;;4137619;28;20049;-64
2022/05/17 07:25:14;;;;;;;0.00;0.00;;;20.10;84.80;;;;;;4150991;28;20038;-65
2022/05/17 07:27:39;;;;;;;0.00;0.00;;;19.80;84.90;;;;;;4124513;28;20054;-65
2022/05/17 07:30:02;;;;;;;0.00;0.00;;;19.70;85.60;;;;;;4124229;28;20042;-66
2022/05/17 07:32:24;;;;;;;0.00;0.00;;;19.90;85.90;;;;;;4124265;28;20065;-66
2022/05/17 07:34:47;;;;;;;0.00;0.00;;;20.20;85.60;;;;;;4150931;28;20046;-66
2022/05/17 07:37:09;;;;;;;0.00;0.00;;;20.30;84.40;;;;;;4150843;28;20077;-66
2022/05/17 07:39:32;;;;;;;0.00;0.00;;;20.40;84.70;;;;;;4164907;28;20053;-64
2022/05/17 07:41:58;;;;;;;0.00;0.00;;;20.40;84.70;;;;;;4137743;28;20062;-65
2022/05/17 07:44:25;;;;;;;0.00;0.00;;;20.30;84.20;;;;;;4150940;28;20476;-65
2022/05/17 07:46:47;;;;;;;0.00;0.00;;;20.40;84.50;;;;;;4136741;28;20490;-64
2022/05/17 07:49:11;;;;;;;0.00;0.00;;;20.50;85.50;;;;;;4137086;28;20083;-67
2022/05/17 07:51:35;;;;;;;0.00;0.00;;;20.80;84.90;;;;;;4150981;28;20054;-65
2022/05/17 07:53:59;;;;;;;0.00;0.00;;;20.90;84.00;;;;;;4178653;28;20053;-66
2022/05/17 07:56:24;;;;;;;0.00;0.00;;;21.00;84.10;;;;;;4150783;28;20046;-66
2022/05/17 07:58:49;;;;;;;0.00;0.00;;;21.20;83.80;;;;;;4150971;28;20054;-66
2022/05/17 08:01:12;;;;;;;0.00;0.00;;;21.30;82.90;;;;;;4150696;28;20045;-65
2022/05/17 08:03:36;;;;;;;0.00;0.00;;;21.40;82.50;;;;;;4123936;28;20063;-67
2022/05/17 08:06:01;;;;;;;0.00;0.00;;;21.50;82.00;;;;;;4136824;28;20197;-65
2022/05/17 08:08:23;;;;;;;0.00;0.00;;;21.60;82.40;;;;;;4137079;28;20117;-64
2022/05/17 08:10:47;;;;;;;0.00;0.00;;;21.80;82.20;;;;;;4136881;28;20336;-66
2022/05/17 08:13:10;;;;;;;0.00;0.00;;;22.00;81.70;;;;;;4137101;28;20046;-66
2022/05/17 08:15:37;;;;;;;0.00;0.00;;;22.20;80.60;;;;;;4136568;28;20084;-66
2022/05/17 08:18:01;;;;;;;0.00;0.00;;;22.30;80.40;;;;;;4122394;28;20076;-65
2022/05/17 08:20:24;;;;;;;0.00;0.00;;;22.40;79.20;;;;;;4131396;28;20079;-65
2022/05/17 08:22:46;;;;;;;0.00;0.00;;;22.50;78.90;;;;;;4107425;28;20109;-64
2022/05/17 08:27:58;;;;;;;0.00;0.00;;;22.70;78.30;;;;;;4159603;28;20049;-67
2022/05/17 08:30:22;;;;;;;0.00;0.00;;;22.80;77.50;;;;;;4150559;28;20049;-65
2022/05/17 08:33:15;;;;;;;0.00;0.00;;;22.60;77.70;;;;;;4136890;28;20047;-66
2022/05/17 08:35:41;;;;;;;0.00;0.00;;;22.20;76.80;;;;;;4136578;28;20104;-66
2022/05/17 08:38:05;;;;;;;0.00;0.00;;;21.90;78.40;;;;;;4150007;28;20053;-66
2022/05/17 08:40:35;;;;;;;0.00;0.00;;;22.10;78.90;;;;;;4123472;28;20513;-66
2022/05/17 08:42:57;;;;;;;0.00;0.00;;;22.30;78.50;;;;;;4163854;28;20046;-66
2022/05/17 08:45:36;;;;;;;0.00;0.00;;;22.50;77.70;;;;;;4149967;28;20045;-67
2022/05/17 08:48:02;;;;;;;0.00;0.00;;;22.60;76.60;;;;;;4150297;28;20077;-66
2022/05/17 08:50:33;;;;;;;0.00;0.00;;;22.70;76.00;;;;;;4136472;28;20091;-65
2022/05/17 08:52:56;;;;;;;0.00;0.00;;;22.80;75.70;;;;;;4136699;28;20054;-66
2022/05/17 08:55:34;;;;;;;0.00;0.00;;;22.70;75.60;;;;;;4149951;28;20071;-66
2022/05/17 08:58:15;;;;;;;0.00;0.00;;;22.80;75.10;;;;;;4150118;28;20634;-66
2022/05/17 09:00:57;;;;;;;0.00;0.00;;;22.80;75.70;;;;;;4177830;28;20045;-66
2022/05/17 09:03:40;;;;;;;0.00;0.00;;;23.00;75.10;;;;;;4136394;28;20059;-67
2022/05/17 09:06:29;;;;;;;0.00;0.00;;;23.10;74.80;;;;;;4149843;28;20042;-67
2022/05/17 09:09:02;;;;;;;0.00;0.00;;;23.20;74.90;;;;;;4163721;28;20418;-67
2022/05/17 09:11:38;;;;;;;0.00;0.00;;;23.20;74.40;;;;;;4163496;28;20060;-66
2022/05/17 09:14:07;;;;;;;0.00;0.00;;;23.30;73.90;;;;;;4136320;28;20133;-66
2022/05/17 09:16:39;;;;;;;0.00;0.00;;;23.30;74.70;;;;;;4149555;28;20088;-66
2022/05/17 09:19:01;;;;;;;0.00;0.00;;;23.50;74.60;;;;;;4163314;28;20049;-67
2022/05/17 09:21:39;;;;;;;0.00;0.00;;;23.70;74.00;;;;;;4149717;28;20346;-66
2022/05/17 09:24:13;;;;;;;0.00;0.00;;;23.80;73.50;;;;;;4136232;28;20038;-66
2022/05/17 09:26:39;;;;;;;0.00;0.00;;;23.90;73.00;;;;;;4122487;28;20545;-65
2022/05/17 09:29:11;;;;;;;0.00;0.00;;;23.90;71.80;;;;;;4103881;28;20480;-65
2022/05/17 09:31:37;;;;;;;0.00;0.00;;;23.90;70.50;;;;;;4117341;28;20464;-66
2022/05/17 09:34:02;;;;;;;0.00;0.00;;;23.70;70.50;;;;;;4119374;28;20055;-66
2022/05/17 09:36:40;;;;;;;0.00;0.00;;;23.60;71.60;;;;;;4103555;28;20120;-66
2022/05/17 09:39:02;;;;;;;0.00;0.00;;;23.50;70.90;;;;;;4103902;28;20047;-65
2022/05/17 09:41:34;;;;;;;0.00;0.00;;;23.50;70.50;;;;;;4130651;28;20042;-65
2022/05/17 09:44:24;;;;;;;0.00;0.00;;;23.50;70.40;;;;;;4116841;28;20367;-65
2022/05/17 09:46:49;;;;;;;0.00;0.00;;;23.50;69.30;;;;;;4144164;28;20137;-65
2022/05/17 09:55:23;;;;;;;0.00;0.00;;;23.40;68.80;;;;;;4103505;28;20056;-66
2022/05/17 09:58:09;;;;;;;0.00;0.00;;;23.60;67.10;;;;;;4103572;28;20454;-65
2022/05/17 10:00:40;;;;;;;0.00;0.00;;;23.70;68.10;;;;;;4130196;28;20080;-65
2022/05/17 10:03:28;;;;;;;0.00;0.00;;;23.60;69.00;;;;;;4116810;28;20162;-65
2022/05/17 10:05:57;;;;;;;0.00;0.00;;;23.50;69.60;;;;;;4116937;28;20050;-66
2022/05/17 10:08:19;;;;;;;0.00;0.00;;;23.60;70.70;;;;;;4103420;28;20078;-65
2022/05/17 10:10:45;;;;;;;0.00;0.00;;;23.70;69.60;;;;;;4117022;28;20050;-65
2022/05/17 10:13:32;;;;;;;0.00;0.00;;;23.90;69.80;;;;;;4116602;28;20043;-66
2022/05/17 10:16:02;;;;;;;0.00;0.00;;;24.10;68.90;;;;;;4103934;28;20060;-66
2022/05/17 10:18:53;;;;;;;0.00;0.00;;;24.00;68.90;;;;;;4116707;28;20085;-66
2022/05/17 10:21:25;;;;;;;0.00;0.00;;;24.00;69.10;;;;;;4116619;28;20043;-66
2022/05/17 10:23:54;;;;;;;0.00;0.00;;;23.90;66.90;;;;;;4116915;28;20043;-66
2022/05/17 10:26:26;;;;;;;0.00;0.00;;;24.00;67.20;;;;;;4103635;28;20050;-66
2022/05/17 10:28:58;;;;;;;0.00;0.00;;;24.00;66.10;;;;;;4132599;28;20046;-66
2022/05/17 10:31:30;;;;;;;0.00;0.00;;;24.20;66.60;;;;;;4105871;28;20050;-66
2022/05/17 10:34:25;;;;;;;0.00;0.00;;;24.20;65.20;;;;;;4119137;28;20150;-66
2022/05/17 10:36:53;;;;;;;0.00;0.00;;;24.40;66.30;;;;;;4132696;28;20077;-66
2022/05/17 10:39:44;;;;;;;0.00;0.00;;;24.50;66.30;;;;;;4119109;28;20081;-66
2022/05/17 10:42:09;;;;;;;;;;;24.60;64.40;;;;;;4119099;28;20054;-66
2022/05/17 10:44:44;;;;;;;0.00;0.00;;;24.40;64.00;;;;;;4119345;28;19926;-66
2022/05/17 10:47:35;;;;;;;0.00;0.00;;;24.50;66.10;;;;;;4132649;28;20050;-66
2022/05/17 10:50:17;;;;;;;0.00;0.00;;;24.60;66.00;;;;;;4119184;28;20054;-65
2022/05/17 10:52:56;;;;;;;0.00;0.00;;;24.70;66.30;;;;;;4132934;28;20388;-65
2022/05/17 10:55:37;;;;;;;0.00;0.00;;;24.70;65.40;;;;;;4119056;28;20501;-64
2022/05/17 10:58:17;;;;;;;0.00;0.00;;;24.70;66.30;;;;;;4132426;28;20054;-65
2022/05/17 11:00:47;;;;;;;0.00;0.00;;;24.90;66.70;;;;;;4119050;28;20074;-64
2022/05/17 11:03:24;;;;;;;0.00;0.00;;;25.00;66.40;;;;;;4118803;28;20043;-64
2022/05/17 11:06:16;;;;;;;0.00;0.00;;;25.20;66.60;;;;;;4132259;28;20054;-65
2022/05/17 11:09:07;;;;;;;0.00;0.00;;;25.40;65.70;;;;;;4119284;28;20054;-65
2022/05/17 11:11:56;;;;;;;0.00;0.00;;;25.50;63.70;;;;;;4119216;28;20412;-64
2022/05/17 11:14:40;;;;;;;0.00;0.00;;;25.30;64.70;;;;;;4119065;28;20100;-65
2022/05/17 11:17:28;;;;;;;0.00;0.00;;;25.40;65.20;;;;;;4121405;28;20115;-64
2022/05/17 11:20:21;;;;;;;0.00;0.00;;;25.40;65.50;;;;;;4132350;28;20471;-67
2022/05/17 11:22:47;;;;;;;0.00;0.00;;;25.40;65.90;;;;;;4132448;28;20112;-66
2022/05/17 11:25:36;;;;;;;0.00;0.00;;;25.40;65.20;;;;;;4132049;28;20050;-65
2022/05/17 11:28:14;;;;;;;0.00;0.00;;;25.30;65.60;;;;;;4141592;28;20061;-67
2022/05/17 11:30:52;;;;;;;0.00;0.00;;;25.30;65.30;;;;;;4148410;28;20433;-65
2022/05/17 11:33:23;;;;;;;0.00;0.00;;;25.50;66.70;;;;;;4134886;28;20056;-65
2022/05/17 11:36:14;;;;;;;0.00;0.00;;;25.70;66.00;;;;;;4121482;28;20115;-66
2022/05/17 11:38:52;;;;;;;0.00;0.00;;;25.80;65.70;;;;;;4124389;28;20038;-66
2022/05/17 11:41:17;;;;;;;0.00;0.00;;;25.90;65.70;;;;;;4147917;28;20042;-67
2022/05/17 11:43:43;;;;;;;0.00;0.00;;;25.90;65.00;;;;;;4148065;28;20392;-66
2022/05/17 11:46:28;;;;;;;0.00;0.00;;;26.10;64.50;;;;;;4134343;28;20095;-66
2022/05/17 11:48:54;;;;;;;0.00;0.00;;;25.90;63.80;;;;;;4147919;28;20053;-65
2022/05/17 11:51:16;;;;;;;0.00;0.00;;;26.00;65.70;;;;;;4148028;28;20057;-65
2022/05/17 11:53:46;;;;;;;0.00;0.00;;;25.90;65.00;;;;;;4177434;28;20474;-66
2022/05/17 11:56:13;;;;;;;0.00;0.00;;;25.90;64.80;;;;;;4150669;28;20045;-66
2022/05/17 11:58:39;;;;;;;0.00;0.00;;;26.10;63.70;;;;;;4137402;28;20476;-66
2022/05/17 12:01:26;;;;;;;0.00;0.00;;;26.10;63.00;;;;;;4150644;28;20048;-67
2022/05/17 12:03:53;;;;;;;0.00;0.00;;;26.10;61.90;;;;;;4150947;28;20061;-65
2022/05/17 12:06:58;;;;;;;0.00;0.00;;;26.20;62.20;;;;;;4150367;28;20062;-64
2022/05/17 12:09:23;;;;;;;0.00;0.00;;;26.30;63.10;;;;;;4150658;28;20050;-65
2022/05/17 12:12:16;;;;;;;0.00;0.00;;;26.30;63.60;;;;;;4137612;28;20528;-64
2022/05/17 12:14:50;;;;;;;0.00;0.00;;;26.40;62.20;;;;;;4150753;28;20139;-65
2022/05/17 12:17:20;;;;;;;0.00;0.00;;;26.50;63.00;;;;;;4137083;28;20050;-65
2022/05/17 12:20:07;;;;;;;0.00;0.00;;;26.60;62.90;;;;;;4150761;28;20050;-66
2022/05/17 12:22:42;;;;;;;0.00;0.00;;;26.40;62.60;;;;;;4150532;28;20283;-66
2022/05/17 12:25:25;;;;;;;0.00;0.00;;;26.40;62.70;;;;;;4136845;28;20483;-66
2022/05/17 12:27:47;;;;;;;0.00;0.00;;;26.50;60.80;;;;;;4169712;28;20044;-65
2022/05/17 12:33:06;;;;;;;0.00;0.00;;;25.90;59.60;;;;;;4219112;28;20056;-65
2022/05/17 12:35:31;;;;;;;0.00;0.00;;;25.80;59.00;;;;;;4218959;28;20040;-65
2022/05/17 12:37:54;;;;;;;0.00;0.00;;;25.70;59.70;;;;;;4219307;28;20120;-66
2022/05/17 12:43:10;;;;;;;0.00;0.00;;;26.00;62.20;;;;;;4219151;28;20053;-66
2022/05/17 12:45:37;;;;;;;0.00;0.00;;;26.30;61.50;;;;;;4205190;28;20463;-66
2022/05/17 12:48:33;;;;;;;0.00;0.00;;;26.30;61.10;;;;;;4191400;28;20452;-65
2022/05/17 12:51:01;;;;;;;0.00;0.00;;;26.50;60.10;;;;;;4204732;28;20052;-65
2022/05/17 12:53:36;;;;;;;0.00;0.00;;;26.60;59.60;;;;;;4219010;28;20048;-66
2022/05/17 12:56:07;;;;;;;0.00;0.00;;;26.80;59.20;;;;;;4204793;28;20051;-65
2022/05/17 12:58:29;;;;;;;0.00;0.00;;;26.60;58.10;;;;;;4204666;28;20044;-64
2022/05/17 13:00:56;;;;;;;0.00;0.00;;;26.30;58.90;;;;;;4190833;28;20045;-65
2022/05/17 13:03:21;;;;;;;0.00;0.00;;;26.40;59.10;;;;;;4204822;28;20040;-66
2022/05/17 13:05:51;;;;;;;0.00;0.00;;;26.60;58.50;;;;;;4204952;28;20052;-65
2022/05/17 13:08:26;;;;;;;0.00;0.00;;;26.70;58.00;;;;;;4218844;28;20074;-65
2022/05/17 13:10:58;;;;;;;0.00;0.00;;;26.80;57.70;;;;;;4218795;28;20059;-65
2022/05/17 13:13:22;;;;;;;0.00;0.00;;;26.80;56.50;;;;;;4204539;28;20053;-66